createdAt,value
2022-11-30T00:01:38.999Z,6.30
2022-11-30T00:04:42.177Z,6.30
2022-11-30T00:07:45.329Z,6.30
2022-11-30T00:10:48.507Z,6.30
2022-11-30T00:13:53.302Z,6.30
2022-11-30T00:16:56.464Z,6.30
2022-11-30T00:19:59.576Z,6.30
2022-11-30T00:23:02.707Z,6.30
2022-11-30T00:26:07.974Z,6.30
2022-11-30T00:29:12.993Z,6.30
2022-11-30T00:32:16.140Z,6.30
2022-11-30T00:35:19.338Z,6.30
2022-11-30T00:38:22.792Z,6.30
2022-11-30T00:41:25.920Z,6.30
2022-11-30T00:44:30.452Z,6.30
2022-11-30T00:47:33.577Z,6.30
2022-11-30T00:50:36.722Z,6.30
2022-11-30T00:53:40.558Z,6.30
2022-11-30T00:56:43.649Z,6.30
2022-11-30T00:59:48.152Z,6.30
2022-11-30T01:02:55.054Z,6.30
2022-11-30T01:06:03.076Z,6.40
2022-11-30T01:09:06.638Z,6.30
2022-11-30T01:12:09.756Z,6.30
2022-11-30T01:15:14.322Z,6.30
2022-11-30T01:18:17.841Z,6.30
2022-11-30T01:21:23.178Z,6.30
2022-11-30T01:24:26.307Z,6.30
2022-11-30T01:27:29.449Z,6.30
2022-11-30T01:30:33.994Z,6.30
2022-11-30T01:33:37.427Z,6.30
2022-11-30T01:36:40.498Z,6.30
2022-11-30T01:39:43.653Z,6.30
2022-11-30T01:42:47.978Z,6.30
2022-11-30T01:45:52.976Z,6.30
2022-11-30T01:49:01.755Z,6.30
2022-11-30T01:52:09.678Z,6.20
2022-11-30T01:55:18.698Z,6.20
2022-11-30T01:58:27.758Z,6.30
2022-11-30T02:01:32.637Z,6.30
2022-11-30T02:04:38.333Z,6.30
2022-11-30T02:07:42.471Z,6.30
2022-11-30T02:10:50.850Z,6.30
2022-11-30T02:14:05.655Z,6.30
2022-11-30T02:17:18.922Z,6.30
2022-11-30T02:20:41.768Z,6.30
2022-11-30T02:24:09.260Z,6.30
2022-11-30T02:27:21.454Z,6.30
2022-11-30T02:30:26.386Z,6.20
2022-11-30T02:33:32.396Z,6.10
2022-11-30T02:36:36.654Z,6.00
2022-11-30T02:39:39.835Z,6.00
2022-11-30T02:42:43.709Z,5.90
2022-11-30T02:45:55.157Z,6.00
2022-11-30T02:49:04.038Z,6.00
2022-11-30T02:52:08.526Z,6.00
2022-11-30T02:55:15.872Z,5.90
2022-11-30T02:58:19.347Z,5.90
2022-11-30T03:01:24.234Z,5.80
2022-11-30T03:04:27.338Z,5.80
2022-11-30T03:07:30.734Z,5.80
2022-11-30T03:10:33.938Z,5.90
2022-11-30T03:13:37.116Z,5.90
2022-11-30T03:16:41.620Z,6.00
2022-11-30T03:19:44.801Z,6.00
2022-11-30T03:22:47.952Z,6.00
2022-11-30T03:25:51.076Z,6.00
2022-11-30T03:28:54.155Z,6.10
2022-11-30T03:31:58.662Z,6.10
2022-11-30T03:35:01.759Z,6.00
2022-11-30T03:38:04.870Z,6.00
2022-11-30T03:41:10.644Z,6.00
2022-11-30T03:44:13.882Z,6.00
2022-11-30T03:47:18.370Z,6.00
2022-11-30T03:50:21.527Z,6.00
2022-11-30T03:53:26.090Z,6.10
2022-11-30T03:56:29.781Z,6.10
2022-11-30T03:59:32.864Z,6.00
2022-11-30T04:02:43.067Z,6.10
2022-11-30T04:05:48.737Z,6.10
2022-11-30T04:08:51.874Z,6.00
2022-11-30T04:11:54.974Z,6.00
2022-11-30T04:14:58.038Z,6.00
2022-11-30T04:18:02.696Z,6.00
2022-11-30T04:21:07.329Z,6.00
2022-11-30T04:24:10.776Z,6.00
2022-11-30T04:27:13.888Z,6.10
2022-11-30T04:30:17.623Z,6.10
2022-11-30T04:33:22.243Z,6.00
2022-11-30T04:36:25.384Z,6.00
2022-11-30T04:39:28.518Z,5.90
2022-11-30T04:42:31.650Z,5.90
2022-11-30T04:45:35.656Z,6.00
2022-11-30T04:48:40.342Z,6.00
2022-11-30T04:51:43.440Z,6.00
2022-11-30T04:54:46.885Z,6.00
2022-11-30T04:57:50.457Z,5.90
2022-11-30T05:00:55.326Z,5.90
2022-11-30T05:04:00.658Z,5.90
2022-11-30T05:07:03.870Z,5.90
2022-11-30T05:10:09.064Z,5.80
2022-11-30T05:13:12.176Z,5.70
2022-11-30T05:16:15.306Z,5.70
2022-11-30T05:19:19.841Z,5.60
2022-11-30T05:22:22.983Z,5.60
2022-11-30T05:25:26.109Z,5.50
2022-11-30T05:28:29.219Z,5.50
2022-11-30T05:31:32.879Z,5.50
2022-11-30T05:34:49.723Z,5.50
2022-11-30T05:37:54.029Z,5.50
2022-11-30T05:41:02.108Z,5.60
2022-11-30T05:44:06.426Z,5.60
2022-11-30T05:47:09.616Z,5.70
2022-11-30T05:50:14.238Z,5.60
2022-11-30T05:53:17.321Z,5.70
2022-11-30T05:56:22.097Z,5.70
2022-11-30T05:59:25.320Z,5.70
2022-11-30T06:02:28.823Z,5.80
2022-11-30T06:05:36.603Z,5.80
2022-11-30T06:08:39.762Z,5.80
2022-11-30T06:11:42.901Z,5.90
2022-11-30T06:14:46.272Z,6.00
2022-11-30T06:17:49.649Z,6.00
2022-11-30T06:20:54.170Z,6.00
2022-11-30T06:23:58.014Z,6.00
2022-11-30T06:27:01.157Z,6.10
2022-11-30T06:30:04.623Z,6.10
2022-11-30T06:33:07.820Z,6.10
2022-11-30T06:36:12.494Z,6.10
2022-11-30T06:39:15.617Z,6.10
2022-11-30T06:42:19.712Z,6.10
2022-11-30T06:45:22.881Z,6.10
2022-11-30T06:48:25.992Z,6.10
2022-11-30T06:51:30.483Z,6.20
2022-11-30T06:54:33.632Z,6.20
2022-11-30T06:57:36.740Z,6.10
2022-11-30T07:00:40.267Z,6.10
2022-11-30T07:03:43.823Z,6.10
2022-11-30T07:06:48.377Z,6.10
2022-11-30T07:09:52.215Z,6.10
2022-11-30T07:12:55.347Z,6.20
2022-11-30T07:15:58.533Z,6.20
2022-11-30T07:19:01.726Z,6.20
2022-11-30T07:22:06.347Z,6.20
2022-11-30T07:25:28.541Z,6.30
2022-11-30T07:28:32.250Z,6.30
2022-11-30T07:31:35.802Z,6.30
2022-11-30T07:34:38.955Z,6.30
2022-11-30T07:37:43.483Z,6.30
2022-11-30T07:40:46.613Z,6.30
2022-11-30T07:43:49.854Z,6.30
2022-11-30T07:46:53.206Z,6.30
2022-11-30T07:49:56.297Z,6.30
2022-11-30T07:53:00.779Z,6.30
2022-11-30T07:56:06.036Z,6.30
2022-11-30T07:59:09.202Z,6.30
2022-11-30T08:02:13.329Z,6.30
2022-11-30T08:05:16.711Z,6.20
2022-11-30T08:08:21.255Z,6.20
2022-11-30T08:11:26.200Z,6.20
2022-11-30T08:14:29.279Z,6.30
2022-11-30T08:17:32.388Z,6.30
2022-11-30T08:20:35.512Z,6.30
2022-11-30T08:23:41.899Z,6.30
2022-11-30T08:26:45.240Z,6.30
2022-11-30T08:29:48.379Z,6.40
2022-11-30T08:32:51.795Z,6.40
2022-11-30T08:35:55.430Z,6.40
2022-11-30T08:39:02.453Z,6.40
2022-11-30T08:42:05.784Z,6.40
2022-11-30T08:45:09.630Z,6.40
2022-11-30T08:48:13.259Z,6.40
2022-11-30T08:51:18.515Z,6.30
2022-11-30T08:54:23.067Z,6.30
2022-11-30T08:57:26.859Z,6.30
2022-11-30T09:00:30.128Z,6.30
2022-11-30T09:03:33.260Z,6.30
2022-11-30T09:06:36.404Z,6.30
2022-11-30T09:09:40.886Z,6.30
2022-11-30T09:12:44.118Z,6.30
2022-11-30T09:15:55.723Z,6.40
2022-11-30T09:18:59.097Z,6.50
2022-11-30T09:22:02.391Z,6.60
2022-11-30T09:25:07.697Z,6.70
2022-11-30T09:28:12.460Z,6.70
2022-11-30T09:31:17.978Z,6.70
2022-11-30T09:34:21.354Z,6.80
2022-11-30T09:37:24.506Z,6.80
2022-11-30T09:40:34.176Z,6.90
2022-11-30T09:43:46.080Z,6.80
2022-11-30T09:46:56.868Z,6.80
2022-11-30T09:50:05.225Z,6.80
2022-11-30T09:53:14.986Z,6.70
2022-11-30T09:56:26.069Z,6.80
2022-11-30T09:59:32.901Z,6.70
2022-11-30T10:02:39.237Z,6.70
2022-11-30T10:05:48.612Z,6.80
2022-11-30T10:09:07.793Z,6.90
2022-11-30T10:12:17.142Z,6.90
2022-11-30T10:15:32.707Z,6.90
2022-11-30T10:18:45.327Z,6.90
2022-11-30T10:22:01.765Z,7.00
2022-11-30T10:25:15.539Z,6.90
2022-11-30T10:28:46.617Z,6.90
2022-11-30T10:31:49.810Z,6.90
2022-11-30T10:34:56.190Z,6.80
2022-11-30T10:38:04.327Z,6.80
2022-11-30T10:41:15.003Z,6.70
2022-11-30T10:44:25.236Z,6.70
2022-11-30T10:47:33.973Z,6.70
2022-11-30T10:50:37.316Z,6.70
2022-11-30T10:53:40.513Z,6.70
2022-11-30T10:56:44.088Z,6.70
2022-11-30T10:59:51.511Z,6.80
2022-11-30T11:02:54.792Z,6.70
2022-11-30T11:06:12.601Z,6.70
2022-11-30T11:09:32.436Z,6.70
2022-11-30T11:12:35.607Z,6.80
2022-11-30T11:15:40.267Z,6.80
2022-11-30T11:18:54.029Z,6.80
2022-11-30T11:21:57.240Z,6.90
2022-11-30T11:25:12.867Z,6.90
2022-11-30T11:28:20.254Z,7.00
2022-11-30T11:31:36.483Z,7.00
2022-11-30T11:34:39.645Z,7.00
2022-11-30T11:37:52.615Z,7.00
2022-11-30T11:40:58.849Z,7.10
2022-11-30T11:44:05.183Z,7.10
2022-11-30T11:47:25.049Z,7.10
2022-11-30T11:51:04.882Z,7.00
2022-11-30T11:53:58.298Z,7.10
2022-11-30T11:57:01.928Z,7.10
2022-11-30T12:00:15.677Z,7.10
2022-11-30T12:03:31.492Z,7.10
2022-11-30T12:06:36.935Z,7.20
2022-11-30T12:09:45.671Z,7.20
2022-11-30T12:12:53.462Z,7.20
2022-11-30T12:16:05.654Z,7.20
2022-11-30T12:19:16.508Z,7.10
2022-11-30T12:22:38.940Z,7.20
2022-11-30T12:25:46.504Z,7.20
2022-11-30T12:29:07.243Z,7.20
2022-11-30T12:32:24.540Z,7.20
2022-11-30T12:35:38.189Z,7.20
2022-11-30T12:38:49.593Z,7.20
2022-11-30T12:41:55.983Z,7.20
2022-11-30T12:45:06.271Z,7.20
2022-11-30T12:48:19.897Z,7.20
2022-11-30T12:51:31.062Z,7.20
2022-11-30T12:54:39.157Z,7.10
2022-11-30T12:57:50.209Z,7.10
2022-11-30T13:01:06.775Z,7.10
2022-11-30T13:04:17.567Z,7.00
2022-11-30T13:07:28.126Z,7.00
2022-11-30T13:10:39.016Z,7.00
2022-11-30T13:13:49.711Z,7.00
2022-11-30T13:17:01.540Z,7.00
2022-11-30T13:20:09.477Z,7.00
2022-11-30T13:23:19.732Z,6.80
2022-11-30T13:26:30.007Z,6.80
2022-11-30T13:30:04.174Z,6.70
2022-11-30T13:33:50.484Z,6.70
2022-11-30T13:37:01.881Z,6.60
2022-11-30T13:40:20.857Z,6.50
2022-11-30T13:43:25.375Z,6.50
2022-11-30T13:46:28.751Z,6.40
2022-11-30T13:49:34.693Z,6.40
2022-11-30T13:53:10.929Z,6.50
2022-11-30T13:56:35.503Z,6.60
2022-11-30T13:59:47.068Z,6.70
2022-11-30T14:02:54.954Z,6.70
2022-11-30T14:05:59.172Z,6.70
2022-11-30T14:09:02.325Z,6.70
2022-11-30T14:12:53.046Z,6.80
2022-11-30T14:15:59.994Z,6.80
2022-11-30T14:19:07.466Z,6.80
2022-11-30T14:22:12.868Z,6.80
2022-11-30T14:25:18.461Z,6.80
2022-11-30T14:28:25.292Z,6.80
2022-11-30T14:31:34.329Z,6.80
2022-11-30T14:34:40.028Z,6.90
2022-11-30T14:37:46.136Z,6.90
2022-11-30T14:40:53.126Z,7.00
2022-11-30T14:44:04.164Z,6.90
2022-11-30T14:47:24.231Z,6.90
2022-11-30T14:50:27.974Z,6.90
2022-11-30T14:53:40.137Z,6.90
2022-11-30T14:56:48.375Z,6.80
2022-11-30T14:59:55.292Z,6.80
2022-11-30T15:02:59.879Z,6.80
2022-11-30T15:06:05.389Z,6.80
2022-11-30T15:09:17.584Z,6.80
2022-11-30T15:12:22.434Z,6.80
2022-11-30T15:15:27.907Z,6.90
2022-11-30T15:18:32.443Z,6.90
2022-11-30T15:21:35.589Z,6.80
2022-11-30T15:24:38.727Z,6.90
2022-11-30T15:27:42.230Z,6.90
2022-11-30T15:30:48.000Z,6.90
2022-11-30T15:33:53.175Z,6.90
2022-11-30T15:36:57.214Z,6.90
2022-11-30T15:40:02.798Z,6.80
2022-11-30T15:43:05.982Z,6.80
2022-11-30T15:46:24.338Z,6.80
2022-11-30T15:49:31.197Z,6.80
2022-11-30T15:52:35.529Z,6.80
2022-11-30T15:55:43.531Z,6.80
2022-11-30T15:59:03.233Z,6.80
2022-11-30T16:02:08.835Z,6.90
2022-11-30T16:05:27.960Z,6.80
2022-11-30T16:08:32.936Z,6.80
2022-11-30T16:11:37.066Z,6.80
2022-11-30T16:14:40.538Z,6.80
2022-11-30T16:17:44.778Z,6.80
2022-11-30T16:20:51.706Z,6.80
2022-11-30T16:23:55.598Z,6.70
2022-11-30T16:26:59.337Z,6.70
2022-11-30T16:30:03.251Z,6.80
2022-11-30T16:33:06.814Z,6.70
2022-11-30T16:36:16.006Z,6.70
2022-11-30T16:39:20.588Z,6.80
2022-11-30T16:42:27.536Z,6.80
2022-11-30T16:45:37.660Z,6.80
2022-11-30T16:48:56.419Z,6.80
2022-11-30T16:52:01.741Z,6.80
2022-11-30T16:55:05.494Z,6.80
2022-11-30T16:58:09.937Z,6.80
2022-11-30T17:01:18.728Z,6.80
2022-11-30T17:04:26.334Z,6.80
2022-11-30T17:07:31.796Z,6.80
2022-11-30T17:10:36.092Z,6.90
2022-11-30T17:13:40.631Z,6.90
2022-11-30T17:16:44.590Z,6.90
2022-11-30T17:19:49.355Z,6.90
2022-11-30T17:22:55.206Z,6.90
2022-11-30T17:26:01.109Z,6.90
2022-11-30T17:29:05.979Z,6.90
2022-11-30T17:32:10.214Z,6.90
2022-11-30T17:35:15.722Z,6.90
2022-11-30T17:38:21.623Z,6.90
2022-11-30T17:41:26.342Z,6.90
2022-11-30T17:44:29.977Z,6.80
2022-11-30T17:47:33.747Z,6.70
2022-11-30T17:50:41.034Z,6.80
2022-11-30T17:53:46.592Z,6.80
2022-11-30T17:56:50.475Z,6.70
2022-11-30T17:59:54.703Z,6.70
2022-11-30T18:03:00.494Z,6.70
2022-11-30T18:06:05.820Z,6.70
2022-11-30T18:09:11.381Z,6.70
2022-11-30T18:12:15.323Z,6.70
2022-11-30T18:15:19.869Z,6.70
2022-11-30T18:18:25.252Z,6.60
2022-11-30T18:21:34.987Z,6.60
2022-11-30T18:24:40.659Z,6.60
2022-11-30T18:27:44.645Z,6.60
2022-11-30T18:30:53.168Z,6.60
2022-11-30T18:33:58.751Z,6.60
2022-11-30T18:37:03.065Z,6.70
2022-11-30T18:40:11.234Z,6.60
2022-11-30T18:43:16.216Z,6.70
2022-11-30T18:46:21.245Z,6.70
2022-11-30T18:49:26.653Z,6.70
2022-11-30T18:52:31.699Z,6.70
2022-11-30T18:55:38.525Z,6.70
2022-11-30T18:58:43.452Z,6.70
2022-11-30T19:01:49.927Z,6.70
2022-11-30T19:04:55.565Z,6.70
2022-11-30T19:08:04.547Z,6.70
2022-11-30T19:11:12.355Z,6.70
2022-11-30T19:14:23.170Z,6.70
2022-11-30T19:17:34.358Z,6.70
2022-11-30T19:20:45.885Z,6.70
2022-11-30T19:23:52.542Z,6.60
2022-11-30T19:26:59.292Z,6.60
2022-11-30T19:30:06.509Z,6.60
2022-11-30T19:33:11.510Z,6.60
2022-11-30T19:36:19.915Z,6.60
2022-11-30T19:39:24.592Z,6.60
2022-11-30T19:42:35.227Z,6.70
2022-11-30T19:45:40.336Z,6.60
2022-11-30T19:48:46.679Z,6.70
2022-11-30T19:51:52.680Z,6.70
2022-11-30T19:54:57.825Z,6.70
2022-11-30T19:58:06.917Z,6.70
2022-11-30T20:01:16.423Z,6.70
2022-11-30T20:04:21.721Z,6.70
2022-11-30T20:07:28.047Z,6.70
2022-11-30T20:10:33.117Z,6.70
2022-11-30T20:13:39.508Z,6.70
2022-11-30T20:16:44.389Z,6.70
2022-11-30T20:19:50.175Z,6.70
2022-11-30T20:22:56.734Z,6.70
2022-11-30T20:26:01.920Z,6.70
2022-11-30T20:29:09.505Z,6.70
2022-11-30T20:32:14.751Z,6.80
2022-11-30T20:35:20.148Z,6.70
2022-11-30T20:38:25.857Z,6.70
2022-11-30T20:41:30.765Z,6.70
2022-11-30T20:44:37.357Z,6.70
2022-11-30T20:47:42.421Z,6.70
2022-11-30T20:51:07.594Z,6.70
2022-11-30T20:54:16.726Z,6.70
2022-11-30T20:57:25.152Z,6.70
2022-11-30T21:00:30.826Z,6.70
2022-11-30T21:03:35.417Z,6.60
2022-11-30T21:06:39.377Z,6.50
2022-11-30T21:09:44.001Z,6.40
2022-11-30T21:12:49.001Z,6.20
2022-11-30T21:15:54.804Z,6.30
2022-11-30T21:18:59.744Z,6.30
2022-11-30T21:22:03.315Z,6.30
2022-11-30T21:25:07.199Z,6.40
2022-11-30T21:28:10.885Z,6.40
2022-11-30T21:31:16.226Z,6.40
2022-11-30T21:34:19.592Z,6.50
2022-11-30T21:37:22.811Z,6.50
2022-11-30T21:40:25.995Z,6.50
2022-11-30T21:43:30.589Z,6.40
2022-11-30T21:46:35.596Z,6.50
2022-11-30T21:49:38.817Z,6.50
2022-11-30T21:52:42.012Z,6.50
2022-11-30T21:55:45.154Z,6.50
2022-11-30T21:58:50.293Z,6.50
2022-11-30T22:01:54.839Z,6.50
2022-11-30T22:04:58.027Z,6.50
2022-11-30T22:08:01.209Z,6.50
2022-11-30T22:11:05.141Z,6.50
2022-11-30T22:14:11.491Z,6.50
2022-11-30T22:17:15.999Z,6.60
2022-11-30T22:20:19.227Z,6.50
2022-11-30T22:23:22.327Z,6.50
2022-11-30T22:26:27.017Z,6.50
2022-11-30T22:29:30.140Z,6.50
2022-11-30T22:32:35.859Z,6.50
2022-11-30T22:35:41.548Z,6.50
2022-11-30T22:38:45.389Z,6.50
2022-11-30T22:41:55.172Z,6.50
2022-11-30T22:44:59.097Z,6.50
2022-11-30T22:48:03.609Z,6.50
2022-11-30T22:51:08.754Z,6.50
2022-11-30T22:54:12.209Z,6.50
2022-11-30T22:57:15.394Z,6.60
2022-11-30T23:00:19.275Z,6.60
2022-11-30T23:03:26.127Z,6.50
2022-11-30T23:06:29.759Z,6.60
2022-11-30T23:09:32.877Z,6.60
2022-11-30T23:12:58.580Z,6.60
2022-11-30T23:16:00.049Z,6.60
2022-11-30T23:19:05.007Z,6.50
2022-11-30T23:22:08.107Z,6.50
2022-11-30T23:25:11.437Z,6.50
2022-11-30T23:28:14.564Z,6.50
2022-11-30T23:31:32.513Z,6.50
2022-11-30T23:34:39.290Z,6.50
2022-11-30T23:37:42.422Z,6.50
2022-11-30T23:40:45.570Z,6.40
2022-11-30T23:43:48.718Z,6.40
2022-11-30T23:46:51.999Z,6.40
2022-11-30T23:49:56.620Z,6.40
2022-11-30T23:52:59.735Z,6.40
2022-11-30T23:56:04.803Z,6.40
2022-11-30T23:59:07.930Z,6.40
